sensor_id;sensor_type;location;lat;lon;timestamp;P1;durP1;ratioP1;P2;durP2;ratioP2
21675;SDS011;10999;51.332;9.458;2023-06-14T00:00:16;4.63;;;1.80;;
21675;SDS011;10999;51.332;9.458;2023-06-14T00:02:44;6.38;;;2.17;;
21675;SDS011;10999;51.332;9.458;2023-06-14T00:05:11;4.82;;;2.00;;
21675;SDS011;10999;51.332;9.458;2023-06-14T06:14:28;5.10;;;1.80;;
21675;SDS011;10999;51.332;9.458;2023-06-14T06:16:55;4.20;;;1.90;;
21675;SDS011;10999;51.332;9.458;2023-06-14T06:19:22;7.82;;;2.25;;
21675;SDS011;10999;51.332;9.458;2023-06-14T06:21:48;6.70;;;2.13;;
21675;SDS011;10999;51.332;9.458;2023-06-14T06:24:16;4.90;;;1.83;;
21675;SDS011;10999;51.332;9.458;2023-06-14T06:26:42;6.38;;;2.20;;
21675;SDS011;10999;51.332;9.458;2023-06-14T06:29:09;4.75;;;2.10;;
21675;SDS011;10999;51.332;9.458;2023-06-14T06:31:36;4.85;;;2.20;;
21675;SDS011;10999;51.332;9.458;2023-06-14T06:34:03;6.45;;;2.45;;
21675;SDS011;10999;51.332;9.458;2023-06-14T06:36:30;6.78;;;2.22;;
21675;SDS011;10999;51.332;9.458;2023-06-14T06:38:57;4.40;;;2.22;;
21675;SDS011;10999;51.332;9.458;2023-06-14T06:41:24;4.53;;;2.10;;
21675;SDS011;10999;51.332;9.458;2023-06-14T06:43:50;5.03;;;2.25;;
21675;SDS011;10999;51.332;9.458;2023-06-14T06:46:17;4.82;;;2.10;;
21675;SDS011;10999;51.332;9.458;2023-06-14T06:48:45;6.38;;;2.25;;
21675;SDS011;10999;51.332;9.458;2023-06-14T06:51:12;6.68;;;2.30;;
21675;SDS011;10999;51.332;9.458;2023-06-14T06:53:41;5.78;;;2.67;;
21675;SDS011;10999;51.332;9.458;2023-06-14T06:56:14;7.43;;;2.30;;
21675;SDS011;10999;51.332;9.458;2023-06-14T06:58:41;5.85;;;2.53;;
21675;SDS011;10999;51.332;9.458;2023-06-14T07:01:08;8.18;;;2.70;;
21675;SDS011;10999;51.332;9.458;2023-06-14T07:03:35;4.32;;;1.90;;
21675;SDS011;10999;51.332;9.458;2023-06-14T07:06:02;5.82;;;2.25;;
21675;SDS011;10999;51.332;9.458;2023-06-14T07:08:29;5.55;;;2.63;;
21675;SDS011;10999;51.332;9.458;2023-06-14T07:10:56;4.60;;;2.40;;
21675;SDS011;10999;51.332;9.458;2023-06-14T07:13:23;4.45;;;2.13;;
21675;SDS011;10999;51.332;9.458;2023-06-14T07:15:50;6.32;;;2.30;;
21675;SDS011;10999;51.332;9.458;2023-06-14T07:18:19;6.32;;;2.60;;
21675;SDS011;10999;51.332;9.458;2023-06-14T07:20:46;5.75;;;2.33;;
21675;SDS011;10999;51.332;9.458;2023-06-14T07:23:13;5.68;;;2.53;;
21675;SDS011;10999;51.332;9.458;2023-06-14T07:25:40;6.22;;;2.70;;
21675;SDS011;10999;51.332;9.458;2023-06-14T07:28:07;5.88;;;2.00;;
21675;SDS011;10999;51.332;9.458;2023-06-14T07:30:34;4.97;;;2.28;;
21675;SDS011;10999;51.332;9.458;2023-06-14T07:33:01;7.80;;;2.33;;
21675;SDS011;10999;51.332;9.458;2023-06-14T07:35:28;5.63;;;2.47;;
21675;SDS011;10999;51.332;9.458;2023-06-14T07:37:55;5.95;;;2.50;;
21675;SDS011;10999;51.332;9.458;2023-06-14T07:40:22;7.40;;;2.80;;
21675;SDS011;10999;51.332;9.458;2023-06-14T07:42:49;5.82;;;2.47;;
21675;SDS011;10999;51.332;9.458;2023-06-14T07:45:16;7.10;;;2.85;;
21675;SDS011;10999;51.332;9.458;2023-06-14T07:47:44;6.47;;;2.63;;
21675;SDS011;10999;51.332;9.458;2023-06-14T07:50:11;5.55;;;2.42;;
21675;SDS011;10999;51.332;9.458;2023-06-14T07:52:39;5.30;;;2.20;;
21675;SDS011;10999;51.332;9.458;2023-06-14T07:55:06;8.00;;;2.50;;
21675;SDS011;10999;51.332;9.458;2023-06-14T07:57:33;6.10;;;2.38;;
21675;SDS011;10999;51.332;9.458;2023-06-14T08:00:01;8.25;;;2.78;;
21675;SDS011;10999;51.332;9.458;2023-06-14T08:02:32;6.05;;;2.20;;
21675;SDS011;10999;51.332;9.458;2023-06-14T08:04:59;5.13;;;2.30;;
21675;SDS011;10999;51.332;9.458;2023-06-14T08:07:25;5.72;;;2.13;;
21675;SDS011;10999;51.332;9.458;2023-06-14T08:09:52;6.93;;;2.60;;
21675;SDS011;10999;51.332;9.458;2023-06-14T08:12:23;5.05;;;2.28;;
21675;SDS011;10999;51.332;9.458;2023-06-14T08:14:50;5.18;;;2.30;;
21675;SDS011;10999;51.332;9.458;2023-06-14T08:17:37;5.35;;;2.30;;
21675;SDS011;10999;51.332;9.458;2023-06-14T08:20:04;6.43;;;2.38;;
21675;SDS011;10999;51.332;9.458;2023-06-14T08:22:32;6.47;;;2.50;;
21675;SDS011;10999;51.332;9.458;2023-06-14T08:25:00;7.13;;;2.75;;
21675;SDS011;10999;51.332;9.458;2023-06-14T08:27:27;6.32;;;2.83;;
21675;SDS011;10999;51.332;9.458;2023-06-14T08:29:56;5.75;;;2.65;;
21675;SDS011;10999;51.332;9.458;2023-06-14T08:32:23;6.13;;;2.63;;
21675;SDS011;10999;51.332;9.458;2023-06-14T08:34:50;4.93;;;2.40;;
21675;SDS011;10999;51.332;9.458;2023-06-14T08:37:30;6.78;;;2.60;;
21675;SDS011;10999;51.332;9.458;2023-06-14T08:39:57;5.30;;;2.05;;
21675;SDS011;10999;51.332;9.458;2023-06-14T08:42:23;7.22;;;2.42;;
21675;SDS011;10999;51.332;9.458;2023-06-14T08:44:57;6.50;;;2.35;;
21675;SDS011;10999;51.332;9.458;2023-06-14T08:47:26;7.50;;;2.50;;
21675;SDS011;10999;51.332;9.458;2023-06-14T08:49:55;4.68;;;2.15;;
21675;SDS011;10999;51.332;9.458;2023-06-14T08:52:24;4.97;;;2.35;;
21675;SDS011;10999;51.332;9.458;2023-06-14T08:54:56;4.93;;;2.55;;
21675;SDS011;10999;51.332;9.458;2023-06-14T08:57:23;4.85;;;2.40;;
21675;SDS011;10999;51.332;9.458;2023-06-14T08:59:51;5.70;;;2.17;;
21675;SDS011;10999;51.332;9.458;2023-06-14T09:02:20;6.93;;;2.47;;
21675;SDS011;10999;51.332;9.458;2023-06-14T09:04:48;5.63;;;2.22;;
21675;SDS011;10999;51.332;9.458;2023-06-14T09:07:15;5.88;;;2.35;;
21675;SDS011;10999;51.332;9.458;2023-06-14T09:09:43;6.20;;;2.50;;
21675;SDS011;10999;51.332;9.458;2023-06-14T09:12:30;4.90;;;2.30;;
21675;SDS011;10999;51.332;9.458;2023-06-14T09:14:57;6.55;;;2.30;;
21675;SDS011;10999;51.332;9.458;2023-06-14T09:17:24;6.30;;;2.47;;
21675;SDS011;10999;51.332;9.458;2023-06-14T09:19:51;3.47;;;1.83;;
21675;SDS011;10999;51.332;9.458;2023-06-14T09:22:21;6.75;;;2.40;;
21675;SDS011;10999;51.332;9.458;2023-06-14T09:24:48;4.00;;;2.15;;
21675;SDS011;10999;51.332;9.458;2023-06-14T09:27:15;6.60;;;2.22;;
21675;SDS011;10999;51.332;9.458;2023-06-14T09:29:42;5.20;;;2.20;;
21675;SDS011;10999;51.332;9.458;2023-06-14T09:32:09;6.97;;;2.40;;
21675;SDS011;10999;51.332;9.458;2023-06-14T09:34:37;6.70;;;2.35;;
21675;SDS011;10999;51.332;9.458;2023-06-14T09:37:04;6.70;;;2.50;;
21675;SDS011;10999;51.332;9.458;2023-06-14T09:39:31;5.43;;;2.47;;
21675;SDS011;10999;51.332;9.458;2023-06-14T09:41:57;4.90;;;2.38;;
21675;SDS011;10999;51.332;9.458;2023-06-14T09:44:25;4.72;;;2.35;;
21675;SDS011;10999;51.332;9.458;2023-06-14T09:46:56;4.88;;;2.13;;
21675;SDS011;10999;51.332;9.458;2023-06-14T09:49:23;6.20;;;2.70;;
21675;SDS011;10999;51.332;9.458;2023-06-14T09:51:51;5.85;;;2.50;;
21675;SDS011;10999;51.332;9.458;2023-06-14T09:54:23;6.22;;;2.40;;
21675;SDS011;10999;51.332;9.458;2023-06-14T09:56:51;4.97;;;2.20;;
21675;SDS011;10999;51.332;9.458;2023-06-14T09:59:22;5.50;;;2.20;;
21675;SDS011;10999;51.332;9.458;2023-06-14T10:01:57;6.47;;;2.70;;
21675;SDS011;10999;51.332;9.458;2023-06-14T10:04:26;5.13;;;2.40;;
21675;SDS011;10999;51.332;9.458;2023-06-14T10:06:56;5.95;;;2.28;;
21675;SDS011;10999;51.332;9.458;2023-06-14T10:09:24;4.30;;;2.10;;
21675;SDS011;10999;51.332;9.458;2023-06-14T10:11:51;5.22;;;2.25;;
21675;SDS011;10999;51.332;9.458;2023-06-14T10:14:18;4.72;;;2.60;;
21675;SDS011;10999;51.332;9.458;2023-06-14T10:19:42;5.50;;;2.38;;
21675;SDS011;10999;51.332;9.458;2023-06-14T10:22:17;6.70;;;2.45;;
21675;SDS011;10999;51.332;9.458;2023-06-14T10:24:49;6.03;;;2.45;;
21675;SDS011;10999;51.332;9.458;2023-06-14T10:27:16;7.85;;;2.20;;
21675;SDS011;10999;51.332;9.458;2023-06-14T10:32:20;6.30;;;2.65;;
21675;SDS011;10999;51.332;9.458;2023-06-14T10:37:46;5.72;;;2.17;;
21675;SDS011;10999;51.332;9.458;2023-06-14T10:40:29;5.63;;;2.40;;
21675;SDS011;10999;51.332;9.458;2023-06-14T10:42:57;5.60;;;2.28;;
21675;SDS011;10999;51.332;9.458;2023-06-14T10:45:23;5.93;;;2.72;;
21675;SDS011;10999;51.332;9.458;2023-06-14T10:47:50;4.75;;;2.35;;
21675;SDS011;10999;51.332;9.458;2023-06-14T10:50:22;4.95;;;2.13;;
21675;SDS011;10999;51.332;9.458;2023-06-14T10:52:55;5.15;;;2.47;;
21675;SDS011;10999;51.332;9.458;2023-06-14T10:55:22;8.43;;;2.50;;
21675;SDS011;10999;51.332;9.458;2023-06-14T10:57:53;4.07;;;2.22;;
21675;SDS011;10999;51.332;9.458;2023-06-14T11:00:25;4.90;;;1.90;;
21675;SDS011;10999;51.332;9.458;2023-06-14T11:10:48;5.43;;;2.10;;
21675;SDS011;10999;51.332;9.458;2023-06-14T11:13:16;8.18;;;3.45;;
21675;SDS011;10999;51.332;9.458;2023-06-14T11:15:44;4.97;;;2.63;;
21675;SDS011;10999;51.332;9.458;2023-06-14T11:18:13;5.15;;;2.30;;
21675;SDS011;10999;51.332;9.458;2023-06-14T11:20:45;4.35;;;2.33;;
21675;SDS011;10999;51.332;9.458;2023-06-14T11:23:13;6.13;;;2.25;;
21675;SDS011;10999;51.332;9.458;2023-06-14T11:25:39;8.18;;;2.25;;
21675;SDS011;10999;51.332;9.458;2023-06-14T11:28:06;5.75;;;2.40;;
21675;SDS011;10999;51.332;9.458;2023-06-14T11:30:33;4.97;;;2.15;;
21675;SDS011;10999;51.332;9.458;2023-06-14T11:33:00;5.38;;;2.20;;
21675;SDS011;10999;51.332;9.458;2023-06-14T11:35:27;3.92;;;1.65;;
21675;SDS011;10999;51.332;9.458;2023-06-14T11:37:55;4.38;;;1.88;;
21675;SDS011;10999;51.332;9.458;2023-06-14T11:40:24;7.22;;;2.42;;
21675;SDS011;10999;51.332;9.458;2023-06-14T11:42:58;5.00;;;2.20;;
21675;SDS011;10999;51.332;9.458;2023-06-14T11:45:26;3.63;;;1.92;;
21675;SDS011;10999;51.332;9.458;2023-06-14T11:47:54;5.70;;;2.08;;
21675;SDS011;10999;51.332;9.458;2023-06-14T11:50:25;5.05;;;2.13;;
21675;SDS011;10999;51.332;9.458;2023-06-14T11:52:57;4.40;;;1.92;;
21675;SDS011;10999;51.332;9.458;2023-06-14T11:55:36;4.70;;;2.17;;
21675;SDS011;10999;51.332;9.458;2023-06-14T11:58:04;5.80;;;2.30;;
21675;SDS011;10999;51.332;9.458;2023-06-14T12:00:31;6.00;;;2.33;;
21675;SDS011;10999;51.332;9.458;2023-06-14T12:02:58;4.00;;;1.95;;
21675;SDS011;10999;51.332;9.458;2023-06-14T12:05:25;5.40;;;2.22;;
21675;SDS011;10999;51.332;9.458;2023-06-14T12:08:00;5.05;;;2.22;;
21675;SDS011;10999;51.332;9.458;2023-06-14T12:10:28;4.43;;;2.13;;
21675;SDS011;10999;51.332;9.458;2023-06-14T12:12:56;5.20;;;2.20;;
21675;SDS011;10999;51.332;9.458;2023-06-14T12:15:27;4.70;;;1.85;;
21675;SDS011;10999;51.332;9.458;2023-06-14T12:17:55;4.55;;;1.90;;
21675;SDS011;10999;51.332;9.458;2023-06-14T12:20:28;4.40;;;2.20;;
21675;SDS011;10999;51.332;9.458;2023-06-14T12:22:57;6.13;;;1.92;;
21675;SDS011;10999;51.332;9.458;2023-06-14T12:25:31;4.03;;;1.95;;
21675;SDS011;10999;51.332;9.458;2023-06-14T12:28:06;5.05;;;2.20;;
21675;SDS011;10999;51.332;9.458;2023-06-14T12:30:36;5.57;;;2.05;;
21675;SDS011;10999;51.332;9.458;2023-06-14T12:33:04;4.90;;;2.17;;
21675;SDS011;10999;51.332;9.458;2023-06-14T12:35:32;6.63;;;2.30;;
21675;SDS011;10999;51.332;9.458;2023-06-14T12:37:59;5.18;;;2.08;;
21675;SDS011;10999;51.332;9.458;2023-06-14T12:40:25;4.93;;;2.25;;
21675;SDS011;10999;51.332;9.458;2023-06-14T12:42:52;4.78;;;2.30;;
21675;SDS011;10999;51.332;9.458;2023-06-14T12:45:19;3.42;;;1.77;;
21675;SDS011;10999;51.332;9.458;2023-06-14T12:47:49;6.10;;;2.10;;
21675;SDS011;10999;51.332;9.458;2023-06-14T12:50:16;3.28;;;1.80;;
21675;SDS011;10999;51.332;9.458;2023-06-14T12:52:44;4.55;;;2.05;;
21675;SDS011;10999;51.332;9.458;2023-06-14T12:55:10;5.55;;;2.30;;
21675;SDS011;10999;51.332;9.458;2023-06-14T12:57:37;4.40;;;2.20;;
21675;SDS011;10999;51.332;9.458;2023-06-14T13:00:04;4.28;;;2.00;;
21675;SDS011;10999;51.332;9.458;2023-06-14T13:02:33;4.50;;;1.75;;
21675;SDS011;10999;51.332;9.458;2023-06-14T13:05:01;4.03;;;2.03;;
21675;SDS011;10999;51.332;9.458;2023-06-14T13:07:29;4.78;;;2.10;;
21675;SDS011;10999;51.332;9.458;2023-06-14T13:09:56;2.65;;;1.80;;
21675;SDS011;10999;51.332;9.458;2023-06-14T13:12:23;4.00;;;1.88;;
21675;SDS011;10999;51.332;9.458;2023-06-14T13:14:50;4.35;;;1.85;;
21675;SDS011;10999;51.332;9.458;2023-06-14T13:17:17;4.03;;;1.77;;
21675;SDS011;10999;51.332;9.458;2023-06-14T13:19:44;4.95;;;2.20;;
21675;SDS011;10999;51.332;9.458;2023-06-14T13:22:11;4.10;;;2.00;;
21675;SDS011;10999;51.332;9.458;2023-06-14T13:24:37;4.35;;;1.85;;
21675;SDS011;10999;51.332;9.458;2023-06-14T13:27:04;3.83;;;1.55;;
21675;SDS011;10999;51.332;9.458;2023-06-14T13:29:32;3.38;;;1.70;;
21675;SDS011;10999;51.332;9.458;2023-06-14T13:32:02;3.55;;;1.55;;
21675;SDS011;10999;51.332;9.458;2023-06-14T13:34:29;4.88;;;1.95;;
21675;SDS011;10999;51.332;9.458;2023-06-14T13:36:56;3.67;;;1.60;;
21675;SDS011;10999;51.332;9.458;2023-06-14T13:39:25;3.70;;;1.73;;
21675;SDS011;10999;51.332;9.458;2023-06-14T13:41:52;3.55;;;1.90;;
21675;SDS011;10999;51.332;9.458;2023-06-14T13:44:28;4.10;;;1.80;;
21675;SDS011;10999;51.332;9.458;2023-06-14T13:46:56;4.40;;;2.00;;
21675;SDS011;10999;51.332;9.458;2023-06-14T13:49:27;4.07;;;1.63;;
21675;SDS011;10999;51.332;9.458;2023-06-14T13:51:53;3.65;;;1.55;;
21675;SDS011;10999;51.332;9.458;2023-06-14T13:54:20;3.15;;;1.65;;
21675;SDS011;10999;51.332;9.458;2023-06-14T13:56:47;3.97;;;1.60;;
21675;SDS011;10999;51.332;9.458;2023-06-14T13:59:14;5.00;;;1.77;;
21675;SDS011;10999;51.332;9.458;2023-06-14T14:01:42;3.58;;;1.63;;
21675;SDS011;10999;51.332;9.458;2023-06-14T14:04:09;4.10;;;1.60;;
21675;SDS011;10999;51.332;9.458;2023-06-14T14:06:36;4.72;;;1.38;;
21675;SDS011;10999;51.332;9.458;2023-06-14T14:09:03;5.75;;;1.65;;
21675;SDS011;10999;51.332;9.458;2023-06-14T14:11:29;4.22;;;1.90;;
21675;SDS011;10999;51.332;9.458;2023-06-14T14:13:59;5.53;;;1.88;;
21675;SDS011;10999;51.332;9.458;2023-06-14T14:16:26;3.22;;;1.38;;
21675;SDS011;10999;51.332;9.458;2023-06-14T14:18:53;3.83;;;1.55;;
21675;SDS011;10999;51.332;9.458;2023-06-14T14:21:20;4.55;;;1.80;;
21675;SDS011;10999;51.332;9.458;2023-06-14T14:23:46;3.25;;;1.63;;
21675;SDS011;10999;51.332;9.458;2023-06-14T14:26:13;3.65;;;1.48;;
21675;SDS011;10999;51.332;9.458;2023-06-14T14:28:40;3.53;;;1.58;;
21675;SDS011;10999;51.332;9.458;2023-06-14T14:31:09;2.95;;;1.45;;
21675;SDS011;10999;51.332;9.458;2023-06-14T14:33:48;5.82;;;1.95;;
21675;SDS011;10999;51.332;9.458;2023-06-14T14:36:34;3.50;;;1.50;;
21675;SDS011;10999;51.332;9.458;2023-06-14T14:39:14;4.78;;;1.60;;
21675;SDS011;10999;51.332;9.458;2023-06-14T14:41:55;4.10;;;1.60;;
21675;SDS011;10999;51.332;9.458;2023-06-14T14:44:50;4.13;;;1.42;;
21675;SDS011;10999;51.332;9.458;2023-06-14T14:47:17;4.30;;;1.73;;
21675;SDS011;10999;51.332;9.458;2023-06-14T14:49:44;4.43;;;1.70;;
21675;SDS011;10999;51.332;9.458;2023-06-14T14:52:11;4.05;;;1.50;;
21675;SDS011;10999;51.332;9.458;2023-06-14T14:54:49;3.63;;;1.50;;
21675;SDS011;10999;51.332;9.458;2023-06-14T14:57:17;4.93;;;1.65;;
21675;SDS011;10999;51.332;9.458;2023-06-14T14:59:44;3.13;;;1.70;;
21675;SDS011;10999;51.332;9.458;2023-06-14T15:02:11;3.90;;;1.65;;
21675;SDS011;10999;51.332;9.458;2023-06-14T15:04:38;5.03;;;1.90;;
21675;SDS011;10999;51.332;9.458;2023-06-14T15:07:05;3.20;;;1.50;;
21675;SDS011;10999;51.332;9.458;2023-06-14T15:09:32;3.20;;;1.30;;
21675;SDS011;10999;51.332;9.458;2023-06-14T15:11:59;2.92;;;1.40;;
21675;SDS011;10999;51.332;9.458;2023-06-14T15:14:26;3.70;;;1.70;;
21675;SDS011;10999;51.332;9.458;2023-06-14T15:16:57;2.83;;;1.42;;
21675;SDS011;10999;51.332;9.458;2023-06-14T15:19:42;2.97;;;1.38;;
21675;SDS011;10999;51.332;9.458;2023-06-14T15:22:17;3.10;;;1.50;;
21675;SDS011;10999;51.332;9.458;2023-06-14T15:24:52;4.38;;;1.60;;
21675;SDS011;10999;51.332;9.458;2023-06-14T15:27:22;3.25;;;1.27;;
21675;SDS011;10999;51.332;9.458;2023-06-14T15:30:06;3.40;;;1.60;;
21675;SDS011;10999;51.332;9.458;2023-06-14T15:32:33;3.65;;;1.38;;
21675;SDS011;10999;51.332;9.458;2023-06-14T15:35:01;3.45;;;1.65;;
21675;SDS011;10999;51.332;9.458;2023-06-14T15:37:28;3.03;;;1.13;;
21675;SDS011;10999;51.332;9.458;2023-06-14T15:39:55;1.75;;;1.02;;
21675;SDS011;10999;51.332;9.458;2023-06-14T15:42:21;2.75;;;1.23;;
21675;SDS011;10999;51.332;9.458;2023-06-14T15:44:49;2.35;;;1.20;;
21675;SDS011;10999;51.332;9.458;2023-06-14T15:47:15;2.85;;;1.10;;
21675;SDS011;10999;51.332;9.458;2023-06-14T15:49:42;3.97;;;1.50;;
21675;SDS011;10999;51.332;9.458;2023-06-14T15:52:09;2.75;;;0.98;;
21675;SDS011;10999;51.332;9.458;2023-06-14T15:54:36;3.65;;;1.30;;
21675;SDS011;10999;51.332;9.458;2023-06-14T15:57:06;2.75;;;1.20;;
21675;SDS011;10999;51.332;9.458;2023-06-14T15:59:33;2.42;;;1.30;;
21675;SDS011;10999;51.332;9.458;2023-06-14T16:02:00;4.63;;;1.42;;
21675;SDS011;10999;51.332;9.458;2023-06-14T16:04:27;2.53;;;1.23;;
21675;SDS011;10999;51.332;9.458;2023-06-14T16:06:55;5.10;;;1.40;;
21675;SDS011;10999;51.332;9.458;2023-06-14T16:09:22;2.55;;;1.17;;
21675;SDS011;10999;51.332;9.458;2023-06-14T16:11:49;4.18;;;1.63;;
21675;SDS011;10999;51.332;9.458;2023-06-14T16:14:16;6.57;;;1.73;;
21675;SDS011;10999;51.332;9.458;2023-06-14T16:16:43;3.15;;;1.17;;
21675;SDS011;10999;51.332;9.458;2023-06-14T16:19:10;3.53;;;1.48;;
21675;SDS011;10999;51.332;9.458;2023-06-14T16:21:37;3.75;;;1.17;;
21675;SDS011;10999;51.332;9.458;2023-06-14T16:24:04;3.13;;;1.40;;
21675;SDS011;10999;51.332;9.458;2023-06-14T16:26:32;4.05;;;1.40;;
21675;SDS011;10999;51.332;9.458;2023-06-14T16:29:00;3.10;;;1.33;;
21675;SDS011;10999;51.332;9.458;2023-06-14T16:31:27;3.78;;;1.33;;
21675;SDS011;10999;51.332;9.458;2023-06-14T16:33:55;3.22;;;1.65;;
21675;SDS011;10999;51.332;9.458;2023-06-14T16:36:23;3.67;;;1.40;;
21675;SDS011;10999;51.332;9.458;2023-06-14T16:38:51;3.85;;;1.75;;
21675;SDS011;10999;51.332;9.458;2023-06-14T16:41:18;4.93;;;1.65;;
21675;SDS011;10999;51.332;9.458;2023-06-14T16:43:44;2.63;;;1.50;;
21675;SDS011;10999;51.332;9.458;2023-06-14T16:46:13;2.20;;;1.20;;
21675;SDS011;10999;51.332;9.458;2023-06-14T16:48:40;3.63;;;1.50;;
21675;SDS011;10999;51.332;9.458;2023-06-14T16:51:07;4.70;;;1.50;;
21675;SDS011;10999;51.332;9.458;2023-06-14T16:53:34;4.53;;;1.17;;
21675;SDS011;10999;51.332;9.458;2023-06-14T16:56:01;3.95;;;1.40;;
21675;SDS011;10999;51.332;9.458;2023-06-14T16:58:29;2.83;;;1.33;;
21675;SDS011;10999;51.332;9.458;2023-06-14T17:00:56;3.50;;;1.35;;
21675;SDS011;10999;51.332;9.458;2023-06-14T17:03:23;4.57;;;1.65;;
21675;SDS011;10999;51.332;9.458;2023-06-14T17:05:56;3.22;;;1.38;;
21675;SDS011;10999;51.332;9.458;2023-06-14T17:08:23;3.70;;;1.40;;
21675;SDS011;10999;51.332;9.458;2023-06-14T17:10:52;3.45;;;1.55;;
21675;SDS011;10999;51.332;9.458;2023-06-14T17:13:19;5.47;;;1.65;;
21675;SDS011;10999;51.332;9.458;2023-06-14T17:15:46;5.00;;;2.20;;
21675;SDS011;10999;51.332;9.458;2023-06-14T17:18:13;4.03;;;1.90;;
21675;SDS011;10999;51.332;9.458;2023-06-14T17:20:40;3.88;;;1.70;;
21675;SDS011;10999;51.332;9.458;2023-06-14T17:23:06;4.03;;;1.90;;
21675;SDS011;10999;51.332;9.458;2023-06-14T17:25:33;4.38;;;1.67;;
21675;SDS011;10999;51.332;9.458;2023-06-14T17:28:00;5.70;;;2.08;;
21675;SDS011;10999;51.332;9.458;2023-06-14T17:30:27;4.25;;;1.88;;
21675;SDS011;10999;51.332;9.458;2023-06-14T17:32:53;3.78;;;1.88;;
21675;SDS011;10999;51.332;9.458;2023-06-14T17:35:21;5.07;;;1.80;;
21675;SDS011;10999;51.332;9.458;2023-06-14T17:37:48;5.43;;;2.15;;
21675;SDS011;10999;51.332;9.458;2023-06-14T17:40:15;4.38;;;1.70;;
21675;SDS011;10999;51.332;9.458;2023-06-14T17:42:43;5.10;;;1.80;;
21675;SDS011;10999;51.332;9.458;2023-06-14T17:45:09;4.35;;;1.83;;
21675;SDS011;10999;51.332;9.458;2023-06-14T17:47:36;8.32;;;2.33;;
21675;SDS011;10999;51.332;9.458;2023-06-14T17:50:04;5.43;;;2.03;;
21675;SDS011;10999;51.332;9.458;2023-06-14T17:52:31;4.57;;;1.70;;
21675;SDS011;10999;51.332;9.458;2023-06-14T17:54:59;4.50;;;1.65;;
21675;SDS011;10999;51.332;9.458;2023-06-14T17:57:26;4.93;;;1.92;;
21675;SDS011;10999;51.332;9.458;2023-06-14T17:59:53;6.07;;;2.20;;
21675;SDS011;10999;51.332;9.458;2023-06-14T18:02:22;4.00;;;1.90;;
21675;SDS011;10999;51.332;9.458;2023-06-14T18:04:48;6.00;;;2.75;;
21675;SDS011;10999;51.332;9.458;2023-06-14T18:07:15;5.10;;;2.30;;
21675;SDS011;10999;51.332;9.458;2023-06-14T18:09:42;4.20;;;1.70;;
21675;SDS011;10999;51.332;9.458;2023-06-14T18:12:09;9.55;;;4.15;;
21675;SDS011;10999;51.332;9.458;2023-06-14T18:14:37;14.93;;;6.18;;
21675;SDS011;10999;51.332;9.458;2023-06-14T18:17:03;12.48;;;5.75;;
21675;SDS011;10999;51.332;9.458;2023-06-14T18:19:30;7.43;;;2.78;;
21675;SDS011;10999;51.332;9.458;2023-06-14T18:21:57;5.35;;;2.25;;
21675;SDS011;10999;51.332;9.458;2023-06-14T18:24:24;6.40;;;2.20;;
21675;SDS011;10999;51.332;9.458;2023-06-14T18:26:51;5.43;;;2.00;;
21675;SDS011;10999;51.332;9.458;2023-06-14T18:29:17;7.38;;;2.33;;
21675;SDS011;10999;51.332;9.458;2023-06-14T18:31:45;4.63;;;1.85;;
21675;SDS011;10999;51.332;9.458;2023-06-14T18:34:11;6.00;;;2.08;;
21675;SDS011;10999;51.332;9.458;2023-06-14T18:36:38;5.28;;;2.10;;
21675;SDS011;10999;51.332;9.458;2023-06-14T18:39:06;4.70;;;1.77;;
21675;SDS011;10999;51.332;9.458;2023-06-14T18:41:32;6.85;;;2.30;;
21675;SDS011;10999;51.332;9.458;2023-06-14T18:43:59;6.35;;;2.08;;
21675;SDS011;10999;51.332;9.458;2023-06-14T18:46:26;5.93;;;1.90;;
21675;SDS011;10999;51.332;9.458;2023-06-14T18:48:54;5.20;;;2.08;;
21675;SDS011;10999;51.332;9.458;2023-06-14T18:51:22;5.18;;;1.90;;
21675;SDS011;10999;51.332;9.458;2023-06-14T18:53:49;5.20;;;1.90;;
21675;SDS011;10999;51.332;9.458;2023-06-14T18:56:16;4.40;;;1.98;;
21675;SDS011;10999;51.332;9.458;2023-06-14T18:58:42;5.13;;;1.88;;
21675;SDS011;10999;51.332;9.458;2023-06-14T19:01:09;4.57;;;2.00;;
21675;SDS011;10999;51.332;9.458;2023-06-14T19:03:38;5.30;;;2.20;;
21675;SDS011;10999;51.332;9.458;2023-06-14T19:06:05;4.88;;;1.90;;
21675;SDS011;10999;51.332;9.458;2023-06-14T19:08:32;5.50;;;2.25;;
21675;SDS011;10999;51.332;9.458;2023-06-14T19:10:59;5.85;;;2.28;;
21675;SDS011;10999;51.332;9.458;2023-06-14T19:13:26;6.65;;;2.10;;
21675;SDS011;10999;51.332;9.458;2023-06-14T19:15:55;5.60;;;2.30;;
21675;SDS011;10999;51.332;9.458;2023-06-14T19:18:22;6.07;;;2.38;;
21675;SDS011;10999;51.332;9.458;2023-06-14T19:20:50;6.07;;;2.35;;
21675;SDS011;10999;51.332;9.458;2023-06-14T19:23:17;5.72;;;2.03;;
21675;SDS011;10999;51.332;9.458;2023-06-14T19:25:43;3.95;;;1.63;;
21675;SDS011;10999;51.332;9.458;2023-06-14T19:28:10;6.18;;;2.10;;
21675;SDS011;10999;51.332;9.458;2023-06-14T19:30:37;6.75;;;2.10;;
21675;SDS011;10999;51.332;9.458;2023-06-14T19:33:03;4.35;;;1.90;;
21675;SDS011;10999;51.332;9.458;2023-06-14T19:35:30;3.72;;;1.88;;
21675;SDS011;10999;51.332;9.458;2023-06-14T19:37:57;4.80;;;1.88;;
21675;SDS011;10999;51.332;9.458;2023-06-14T19:40:24;5.53;;;1.83;;
21675;SDS011;10999;51.332;9.458;2023-06-14T19:42:50;7.18;;;2.10;;
21675;SDS011;10999;51.332;9.458;2023-06-14T19:45:17;5.70;;;2.25;;
21675;SDS011;10999;51.332;9.458;2023-06-14T19:47:44;4.28;;;1.70;;
21675;SDS011;10999;51.332;9.458;2023-06-14T19:50:11;4.57;;;1.98;;
21675;SDS011;10999;51.332;9.458;2023-06-14T19:52:39;5.28;;;1.83;;
21675;SDS011;10999;51.332;9.458;2023-06-14T19:55:05;7.30;;;2.13;;
21675;SDS011;10999;51.332;9.458;2023-06-14T19:57:32;4.55;;;2.03;;
21675;SDS011;10999;51.332;9.458;2023-06-14T19:59:59;5.55;;;1.88;;
21675;SDS011;10999;51.332;9.458;2023-06-14T20:02:29;3.20;;;1.90;;
21675;SDS011;10999;51.332;9.458;2023-06-14T20:04:56;4.97;;;1.92;;
21675;SDS011;10999;51.332;9.458;2023-06-14T20:07:22;6.00;;;2.03;;
21675;SDS011;10999;51.332;9.458;2023-06-14T20:09:50;4.28;;;2.00;;
21675;SDS011;10999;51.332;9.458;2023-06-14T20:12:17;6.80;;;2.05;;
21675;SDS011;10999;51.332;9.458;2023-06-14T20:14:45;5.15;;;2.00;;
21675;SDS011;10999;51.332;9.458;2023-06-14T20:17:12;4.50;;;1.90;;
21675;SDS011;10999;51.332;9.458;2023-06-14T20:19:39;3.78;;;1.80;;
21675;SDS011;10999;51.332;9.458;2023-06-14T20:22:05;6.75;;;2.38;;
21675;SDS011;10999;51.332;9.458;2023-06-14T20:24:32;5.32;;;2.13;;
21675;SDS011;10999;51.332;9.458;2023-06-14T20:26:59;4.65;;;2.03;;
21675;SDS011;10999;51.332;9.458;2023-06-14T20:29:26;4.90;;;2.15;;
21675;SDS011;10999;51.332;9.458;2023-06-14T20:31:53;4.32;;;1.80;;
21675;SDS011;10999;51.332;9.458;2023-06-14T20:34:19;5.35;;;2.25;;
21675;SDS011;10999;51.332;9.458;2023-06-14T20:36:46;5.38;;;2.42;;
21675;SDS011;10999;51.332;9.458;2023-06-14T20:39:13;5.75;;;2.00;;
21675;SDS011;10999;51.332;9.458;2023-06-14T20:41:40;5.47;;;2.05;;
21675;SDS011;10999;51.332;9.458;2023-06-14T20:44:06;5.63;;;2.30;;
21675;SDS011;10999;51.332;9.458;2023-06-14T20:46:35;6.07;;;2.20;;
21675;SDS011;10999;51.332;9.458;2023-06-14T20:49:03;5.13;;;2.13;;
21675;SDS011;10999;51.332;9.458;2023-06-14T20:51:30;6.15;;;2.38;;
21675;SDS011;10999;51.332;9.458;2023-06-14T20:53:56;7.43;;;2.72;;
21675;SDS011;10999;51.332;9.458;2023-06-14T20:56:23;5.50;;;2.67;;
21675;SDS011;10999;51.332;9.458;2023-06-14T20:58:50;5.95;;;2.58;;
21675;SDS011;10999;51.332;9.458;2023-06-14T21:01:17;5.20;;;2.17;;
21675;SDS011;10999;51.332;9.458;2023-06-14T21:03:44;6.28;;;2.22;;
21675;SDS011;10999;51.332;9.458;2023-06-14T21:06:11;6.05;;;2.30;;
21675;SDS011;10999;51.332;9.458;2023-06-14T21:08:38;6.30;;;2.40;;
21675;SDS011;10999;51.332;9.458;2023-06-14T21:11:04;5.65;;;2.22;;
21675;SDS011;10999;51.332;9.458;2023-06-14T21:13:31;5.55;;;2.33;;
21675;SDS011;10999;51.332;9.458;2023-06-14T21:15:58;6.38;;;2.55;;